Hakuryoumaru No.15 — JD2439 — position and weather

sailwx.info

Track history (hours):
 
Tides and Currents Weather Stations Pressure Air Temp Water Temp Dewpoint Dewpoint Depression Visibility Wind Speed Wind Dir Waves Ship Positions

Hakuryoumaru No.15

Last reported at 2016-May-18 10:17 UTC. Time now 2016-May-26 08:47 UTC.
Position N 35°11' E 139°45'.

Length 80 m; draft 5.4 m.

Type: Tanker. MMSI: 431000243.

Date/timePositionNaut miles runAvg speedWind from/ knotsBaromVisibWave heightAir tempDewpointWater temp
2016-May-18 10:17N 35°11' E 139°45'811.3
2016-May-18 09:33N 35°19' E 139°43'6 6.3
2016-May-18 08:33N 35°25' E 139°39'0 0.0
2016-May-18 07:33N 35°25' E 139°39'0 0.0
2016-May-18 06:33N 35°25' E 139°39'1 0.7
2016-May-18 05:33N 35°24' E 139°39'2 1.9
2016-May-18 04:32N 35°22' E 139°40'0 0.0
2016-May-18 03:32N 35°22' E 139°40'0 0.0
2016-May-18 02:32N 35°22' E 139°40'0 0.0
2016-May-18 01:26N 35°22' E 139°40'0 0.0
2016-May-18 00:32N 35°22' E 139°40'0 0.0
2016-May-17 23:32N 35°22' E 139°40'0 0.0
2016-May-17 22:32N 35°22' E 139°40'0 0.0
2016-May-17 21:32N 35°22' E 139°41'0 0.0
2016-May-17 20:32N 35°22' E 139°40'0 0.0
2016-May-17 19:32N 35°22' E 139°40'0 0.0
2016-May-17 18:32N 35°22' E 139°40'0 0.0
2016-May-17 17:32N 35°22' E 139°40'0 0.0
2016-May-17 16:32N 35°22' E 139°40'0 0.0
2016-May-17 15:32N 35°22' E 139°40'6 5.6
2016-May-17 14:33N 35°18' E 139°45'1211.9
2016-May-17 13:33N 35°06' E 139°44'  
2016-May-13 23:33N 34°09' E 135°07'2 1.5
2016-May-13 22:27N 34°09' E 135°09'0 0.0
2016-May-13 21:33N 34°09' E 135°09'0 0.0
2016-May-13 20:33N 34°09' E 135°09'0 0.0
2016-May-13 19:33N 34°09' E 135°09'0 0.0
2016-May-13 18:33N 34°09' E 135°09'0 0.0
2016-May-13 17:33N 34°09' E 135°09'0 0.0
2016-May-13 16:33N 34°09' E 135°09'0 0.0
2016-May-13 15:33N 34°09' E 135°09'0 0.0
2016-May-13 14:33N 34°09' E 135°09'0 0.1
2016-May-13 13:33N 34°09' E 135°09'0 0.0
2016-May-13 12:30N 34°09' E 135°09'0 0.0
2016-May-13 11:33N 34°09' E 135°09'0 0.0
2016-May-13 10:33N 34°09' E 135°09'0 0.0
2016-May-13 09:30N 34°09' E 135°09'0 0.0
2016-May-13 08:33N 34°09' E 135°09'8 7.9
2016-May-13 07:33N 34°09' E 134°60'28 0.6
2016-May-11 06:32N 34°37' E 135°01'1010.3
2016-May-11 05:33N 34°36' E 135°13'1010.3
2016-May-11 04:33N 34°34' E 135°26'0 0.1
2016-May-11 01:25N 34°34' E 135°26'0 0.0
2016-May-11 00:30N 34°34' E 135°26'0 0.0
2016-May-10 23:32N 34°34' E 135°26'0 0.2
2016-May-10 22:32N 34°34' E 135°26'2 2.4
2016-May-10 21:32N 34°36' E 135°23'0 0.0
2016-May-10 20:08N 34°36' E 135°23'0 0.0
2016-May-10 19:32N 34°36' E 135°23'0 0.0
2016-May-10 18:20N 34°36' E 135°23'0 0.0
2016-May-10 17:32N 34°36' E 135°23'0 0.1
2016-May-10 15:32N 34°35' E 135°23'0 0.0
2016-May-10 14:20N 34°35' E 135°23'0 0.0
2016-May-10 13:14N 34°35' E 135°23'0 0.0
2016-May-10 11:08N 34°35' E 135°23'0 0.0
2016-May-10 10:32N 34°35' E 135°23'0 0.0
2016-May-10 09:26N 34°35' E 135°23'1 0.6
2016-May-10 08:34N 34°35' E 135°22'1313.2
2016-May-10 07:33N 34°34' E 135°06'  
Track history (hours):
 
Tides and Currents Weather Stations Pressure Air Temp Water Temp Dewpoint Dewpoint Depression Visibility Wind Speed Wind Dir Waves Ship Positions

Hakuryoumaru No.15

Last reported at 2016-May-18 10:17 UTC. Time now 2016-May-26 08:47 UTC.
Position N 35°11' E 139°45'.

Length 80 m; draft 5.4 m.

Type: Tanker. MMSI: 431000243.

Date/timePositionNaut miles runAvg speedWind from/ knotsBaromVisibWave heightAir tempDewpointWater temp
2016-May-18 10:17N 35°11' E 139°45'811.3
2016-May-18 09:33N 35°19' E 139°43'6 6.3
2016-May-18 08:33N 35°25' E 139°39'0 0.0
2016-May-18 07:33N 35°25' E 139°39'0 0.0
2016-May-18 06:33N 35°25' E 139°39'1 0.7
2016-May-18 05:33N 35°24' E 139°39'2 1.9
2016-May-18 04:32N 35°22' E 139°40'0 0.0
2016-May-18 03:32N 35°22' E 139°40'0 0.0
2016-May-18 02:32N 35°22' E 139°40'0 0.0
2016-May-18 01:26N 35°22' E 139°40'0 0.0
2016-May-18 00:32N 35°22' E 139°40'0 0.0
2016-May-17 23:32N 35°22' E 139°40'0 0.0
2016-May-17 22:32N 35°22' E 139°40'0 0.0
2016-May-17 21:32N 35°22' E 139°41'0 0.0
2016-May-17 20:32N 35°22' E 139°40'0 0.0
2016-May-17 19:32N 35°22' E 139°40'0 0.0
2016-May-17 18:32N 35°22' E 139°40'0 0.0
2016-May-17 17:32N 35°22' E 139°40'0 0.0
2016-May-17 16:32N 35°22' E 139°40'0 0.0
2016-May-17 15:32N 35°22' E 139°40'6 5.6
2016-May-17 14:33N 35°18' E 139°45'1211.9
2016-May-17 13:33N 35°06' E 139°44'  
2016-May-13 23:33N 34°09' E 135°07'2 1.5
2016-May-13 22:27N 34°09' E 135°09'0 0.0
2016-May-13 21:33N 34°09' E 135°09'0 0.0
2016-May-13 20:33N 34°09' E 135°09'0 0.0
2016-May-13 19:33N 34°09' E 135°09'0 0.0
2016-May-13 18:33N 34°09' E 135°09'0 0.0
2016-May-13 17:33N 34°09' E 135°09'0 0.0
2016-May-13 16:33N 34°09' E 135°09'0 0.0
2016-May-13 15:33N 34°09' E 135°09'0 0.0
2016-May-13 14:33N 34°09' E 135°09'0 0.1
2016-May-13 13:33N 34°09' E 135°09'0 0.0
2016-May-13 12:30N 34°09' E 135°09'0 0.0
2016-May-13 11:33N 34°09' E 135°09'0 0.0
2016-May-13 10:33N 34°09' E 135°09'0 0.0
2016-May-13 09:30N 34°09' E 135°09'0 0.0
2016-May-13 08:33N 34°09' E 135°09'8 7.9
2016-May-13 07:33N 34°09' E 134°60'28 0.6
2016-May-11 06:32N 34°37' E 135°01'1010.3
2016-May-11 05:33N 34°36' E 135°13'1010.3
2016-May-11 04:33N 34°34' E 135°26'0 0.1
2016-May-11 01:25N 34°34' E 135°26'0 0.0
2016-May-11 00:30N 34°34' E 135°26'0 0.0
2016-May-10 23:32N 34°34' E 135°26'0 0.2
2016-May-10 22:32N 34°34' E 135°26'2 2.4
2016-May-10 21:32N 34°36' E 135°23'0 0.0
2016-May-10 20:08N 34°36' E 135°23'0 0.0
2016-May-10 19:32N 34°36' E 135°23'0 0.0
2016-May-10 18:20N 34°36' E 135°23'0 0.0
2016-May-10 17:32N 34°36' E 135°23'0 0.1
2016-May-10 15:32N 34°35' E 135°23'0 0.0
2016-May-10 14:20N 34°35' E 135°23'0 0.0
2016-May-10 13:14N 34°35' E 135°23'0 0.0
2016-May-10 11:08N 34°35' E 135°23'0 0.0
2016-May-10 10:32N 34°35' E 135°23'0 0.0
2016-May-10 09:26N 34°35' E 135°23'1 0.6
2016-May-10 08:34N 34°35' E 135°22'1313.2
2016-May-10 07:33N 34°34' E 135°06'  

Dump ship's entire track history